sensor_id;sensor_type;location;lat;lon;timestamp;temperature;humidity
25250;DHT22;13201;51.148;13.738;2023-12-20T00:00:59;6.70;99.90
25250;DHT22;13201;51.148;13.738;2023-12-20T00:03:24;6.50;99.90
25250;DHT22;13201;51.148;13.738;2023-12-20T00:05:50;6.50;99.90
25250;DHT22;13201;51.148;13.738;2023-12-20T00:08:16;6.60;99.90
25250;DHT22;13201;51.148;13.738;2023-12-20T00:10:43;6.60;99.90
25250;DHT22;13201;51.148;13.738;2023-12-20T00:13:09;6.60;99.90
25250;DHT22;13201;51.148;13.738;2023-12-20T00:15:35;6.60;99.90
25250;DHT22;13201;51.148;13.738;2023-12-20T00:18:01;6.50;99.90
25250;DHT22;13201;51.148;13.738;2023-12-20T00:20:27;6.50;99.90
25250;DHT22;13201;51.148;13.738;2023-12-20T00:22:57;6.50;99.90
25250;DHT22;13201;51.148;13.738;2023-12-20T00:25:24;6.50;99.90
25250;DHT22;13201;51.148;13.738;2023-12-20T00:27:49;6.40;99.90
25250;DHT22;13201;51.148;13.738;2023-12-20T00:30:15;6.30;99.90
25250;DHT22;13201;51.148;13.738;2023-12-20T00:32:41;6.40;99.90
25250;DHT22;13201;51.148;13.738;2023-12-20T00:35:15;6.40;99.90
25250;DHT22;13201;51.148;13.738;2023-12-20T00:37:44;6.30;99.90
25250;DHT22;13201;51.148;13.738;2023-12-20T00:40:10;6.30;99.90
25250;DHT22;13201;51.148;13.738;2023-12-20T00:42:36;6.30;99.90
25250;DHT22;13201;51.148;13.738;2023-12-20T00:45:02;6.20;99.90
25250;DHT22;13201;51.148;13.738;2023-12-20T00:47:33;6.20;99.90
25250;DHT22;13201;51.148;13.738;2023-12-20T00:49:58;6.20;99.90
25250;DHT22;13201;51.148;13.738;2023-12-20T00:52:24;6.10;99.90
25250;DHT22;13201;51.148;13.738;2023-12-20T00:54:50;6.20;99.90
25250;DHT22;13201;51.148;13.738;2023-12-20T00:57:17;6.10;99.90
25250;DHT22;13201;51.148;13.738;2023-12-20T00:59:43;6.10;99.90
25250;DHT22;13201;51.148;13.738;2023-12-20T01:02:08;6.20;99.90
25250;DHT22;13201;51.148;13.738;2023-12-20T01:28:09;5.40;99.90
25250;DHT22;13201;51.148;13.738;2023-12-20T01:30:35;5.40;99.90
25250;DHT22;13201;51.148;13.738;2023-12-20T01:33:00;5.50;99.90
25250;DHT22;13201;51.148;13.738;2023-12-20T01:35:26;5.70;99.90
25250;DHT22;13201;51.148;13.738;2023-12-20T01:37:52;5.70;99.90
25250;DHT22;13201;51.148;13.738;2023-12-20T01:40:22;5.80;99.90
25250;DHT22;13201;51.148;13.738;2023-12-20T01:42:57;5.80;99.90
25250;DHT22;13201;51.148;13.738;2023-12-20T01:45:23;5.80;99.90
25250;DHT22;13201;51.148;13.738;2023-12-20T01:47:48;5.80;99.90
25250;DHT22;13201;51.148;13.738;2023-12-20T01:50:14;5.80;99.90
25250;DHT22;13201;51.148;13.738;2023-12-20T01:52:42;5.80;99.90
25250;DHT22;13201;51.148;13.738;2023-12-20T01:55:08;5.80;99.90
25250;DHT22;13201;51.148;13.738;2023-12-20T01:57:40;5.90;99.90
25250;DHT22;13201;51.148;13.738;2023-12-20T02:00:06;5.90;99.90
25250;DHT22;13201;51.148;13.738;2023-12-20T02:02:37;6.00;99.90
25250;DHT22;13201;51.148;13.738;2023-12-20T02:05:05;5.90;99.90
25250;DHT22;13201;51.148;13.738;2023-12-20T02:07:31;5.80;99.90
25250;DHT22;13201;51.148;13.738;2023-12-20T02:09:57;5.70;99.90
25250;DHT22;13201;51.148;13.738;2023-12-20T02:12:23;5.70;99.90
25250;DHT22;13201;51.148;13.738;2023-12-20T02:14:49;5.70;99.90
25250;DHT22;13201;51.148;13.738;2023-12-20T02:17:15;5.80;99.90
25250;DHT22;13201;51.148;13.738;2023-12-20T02:19:41;5.70;99.90
25250;DHT22;13201;51.148;13.738;2023-12-20T02:22:10;5.80;99.90
25250;DHT22;13201;51.148;13.738;2023-12-20T02:24:36;5.80;99.90
25250;DHT22;13201;51.148;13.738;2023-12-20T02:27:02;5.70;99.90
25250;DHT22;13201;51.148;13.738;2023-12-20T02:29:28;5.70;99.90
25250;DHT22;13201;51.148;13.738;2023-12-20T02:31:54;5.70;99.90
25250;DHT22;13201;51.148;13.738;2023-12-20T02:34:20;5.70;99.90
25250;DHT22;13201;51.148;13.738;2023-12-20T02:36:45;5.70;99.90
25250;DHT22;13201;51.148;13.738;2023-12-20T02:39:11;5.70;99.90
25250;DHT22;13201;51.148;13.738;2023-12-20T02:41:36;5.80;99.90
25250;DHT22;13201;51.148;13.738;2023-12-20T02:44:03;5.70;99.90
25250;DHT22;13201;51.148;13.738;2023-12-20T02:46:29;5.70;99.90
25250;DHT22;13201;51.148;13.738;2023-12-20T02:48:55;5.70;99.90
25250;DHT22;13201;51.148;13.738;2023-12-20T02:51:20;5.70;99.90
25250;DHT22;13201;51.148;13.738;2023-12-20T02:53:46;5.70;99.90
25250;DHT22;13201;51.148;13.738;2023-12-20T02:56:12;5.80;99.90
25250;DHT22;13201;51.148;13.738;2023-12-20T02:58:37;5.70;99.90
25250;DHT22;13201;51.148;13.738;2023-12-20T03:01:03;5.70;99.90
25250;DHT22;13201;51.148;13.738;2023-12-20T03:03:29;5.70;99.90
25250;DHT22;13201;51.148;13.738;2023-12-20T03:05:55;5.60;99.90
25250;DHT22;13201;51.148;13.738;2023-12-20T03:08:20;5.60;99.90
25250;DHT22;13201;51.148;13.738;2023-12-20T03:10:46;5.60;99.90
25250;DHT22;13201;51.148;13.738;2023-12-20T03:13:12;5.60;99.90
25250;DHT22;13201;51.148;13.738;2023-12-20T03:15:37;5.70;99.90
25250;DHT22;13201;51.148;13.738;2023-12-20T03:18:03;5.70;99.90
25250;DHT22;13201;51.148;13.738;2023-12-20T03:20:29;5.60;99.90
25250;DHT22;13201;51.148;13.738;2023-12-20T03:22:58;5.70;99.90
25250;DHT22;13201;51.148;13.738;2023-12-20T03:25:24;5.60;99.90
25250;DHT22;13201;51.148;13.738;2023-12-20T03:27:49;5.60;99.90
25250;DHT22;13201;51.148;13.738;2023-12-20T03:30:15;5.60;99.90
25250;DHT22;13201;51.148;13.738;2023-12-20T03:32:41;5.60;99.90
25250;DHT22;13201;51.148;13.738;2023-12-20T03:35:06;5.70;99.90
25250;DHT22;13201;51.148;13.738;2023-12-20T03:37:32;5.70;99.90
25250;DHT22;13201;51.148;13.738;2023-12-20T03:39:58;5.70;99.90
25250;DHT22;13201;51.148;13.738;2023-12-20T03:42:23;5.80;99.90
25250;DHT22;13201;51.148;13.738;2023-12-20T03:44:49;5.60;99.90
25250;DHT22;13201;51.148;13.738;2023-12-20T03:47:15;5.60;99.90
25250;DHT22;13201;51.148;13.738;2023-12-20T03:49:40;5.60;99.90
25250;DHT22;13201;51.148;13.738;2023-12-20T03:52:06;5.70;99.90
25250;DHT22;13201;51.148;13.738;2023-12-20T03:54:31;5.70;99.90
25250;DHT22;13201;51.148;13.738;2023-12-20T03:56:57;5.70;99.90
25250;DHT22;13201;51.148;13.738;2023-12-20T03:59:23;5.70;99.90
25250;DHT22;13201;51.148;13.738;2023-12-20T04:01:49;5.70;99.90
25250;DHT22;13201;51.148;13.738;2023-12-20T04:04:14;5.70;99.90
25250;DHT22;13201;51.148;13.738;2023-12-20T04:06:40;5.60;99.90
25250;DHT22;13201;51.148;13.738;2023-12-20T04:09:06;5.60;99.90
25250;DHT22;13201;51.148;13.738;2023-12-20T04:11:31;5.70;99.90
25250;DHT22;13201;51.148;13.738;2023-12-20T04:13:57;5.60;99.90
25250;DHT22;13201;51.148;13.738;2023-12-20T04:16:23;5.50;99.90
25250;DHT22;13201;51.148;13.738;2023-12-20T04:18:48;5.60;99.90
25250;DHT22;13201;51.148;13.738;2023-12-20T04:21:14;5.60;99.90
25250;DHT22;13201;51.148;13.738;2023-12-20T04:23:40;5.60;99.90
25250;DHT22;13201;51.148;13.738;2023-12-20T04:26:05;5.60;99.90
25250;DHT22;13201;51.148;13.738;2023-12-20T04:28:32;5.60;99.90
25250;DHT22;13201;51.148;13.738;2023-12-20T04:30:57;5.60;99.90
25250;DHT22;13201;51.148;13.738;2023-12-20T04:33:23;5.60;99.90
25250;DHT22;13201;51.148;13.738;2023-12-20T04:35:49;5.60;99.90
25250;DHT22;13201;51.148;13.738;2023-12-20T04:38:14;5.60;99.90
25250;DHT22;13201;51.148;13.738;2023-12-20T04:40:40;5.60;99.90
25250;DHT22;13201;51.148;13.738;2023-12-20T04:43:07;5.60;99.90
25250;DHT22;13201;51.148;13.738;2023-12-20T04:45:34;5.60;99.90
25250;DHT22;13201;51.148;13.738;2023-12-20T04:48:00;5.50;99.90
25250;DHT22;13201;51.148;13.738;2023-12-20T04:50:26;5.60;99.90
25250;DHT22;13201;51.148;13.738;2023-12-20T04:52:52;5.50;99.90
25250;DHT22;13201;51.148;13.738;2023-12-20T04:55:17;5.60;99.90
25250;DHT22;13201;51.148;13.738;2023-12-20T04:57:43;5.50;99.90
25250;DHT22;13201;51.148;13.738;2023-12-20T05:00:09;5.50;99.90
25250;DHT22;13201;51.148;13.738;2023-12-20T05:02:36;5.50;99.90
25250;DHT22;13201;51.148;13.738;2023-12-20T05:05:02;5.60;99.90
25250;DHT22;13201;51.148;13.738;2023-12-20T05:07:28;5.60;99.90
25250;DHT22;13201;51.148;13.738;2023-12-20T05:09:53;5.70;99.90
25250;DHT22;13201;51.148;13.738;2023-12-20T05:12:19;5.50;99.90
25250;DHT22;13201;51.148;13.738;2023-12-20T05:14:45;5.60;99.90
25250;DHT22;13201;51.148;13.738;2023-12-20T05:17:11;5.60;99.90
25250;DHT22;13201;51.148;13.738;2023-12-20T05:19:37;5.70;99.90
25250;DHT22;13201;51.148;13.738;2023-12-20T05:22:03;5.70;99.90
25250;DHT22;13201;51.148;13.738;2023-12-20T05:24:29;5.70;99.90
25250;DHT22;13201;51.148;13.738;2023-12-20T05:26:54;5.80;99.90
25250;DHT22;13201;51.148;13.738;2023-12-20T05:29:20;5.80;99.90
25250;DHT22;13201;51.148;13.738;2023-12-20T05:31:46;5.80;99.90
25250;DHT22;13201;51.148;13.738;2023-12-20T05:34:11;5.60;99.90
25250;DHT22;13201;51.148;13.738;2023-12-20T05:36:37;5.80;99.90
25250;DHT22;13201;51.148;13.738;2023-12-20T05:39:04;5.90;99.90
25250;DHT22;13201;51.148;13.738;2023-12-20T05:41:30;5.90;99.90
25250;DHT22;13201;51.148;13.738;2023-12-20T05:43:56;5.90;99.90
25250;DHT22;13201;51.148;13.738;2023-12-20T05:46:24;5.80;99.90
25250;DHT22;13201;51.148;13.738;2023-12-20T05:48:49;5.80;99.90
25250;DHT22;13201;51.148;13.738;2023-12-20T05:51:15;5.80;99.90
25250;DHT22;13201;51.148;13.738;2023-12-20T05:53:41;5.70;99.90
25250;DHT22;13201;51.148;13.738;2023-12-20T05:56:06;5.80;99.90
25250;DHT22;13201;51.148;13.738;2023-12-20T05:58:33;5.70;99.90
25250;DHT22;13201;51.148;13.738;2023-12-20T06:00:59;5.70;99.90
25250;DHT22;13201;51.148;13.738;2023-12-20T06:03:24;5.80;99.90
25250;DHT22;13201;51.148;13.738;2023-12-20T06:05:50;5.80;99.90
25250;DHT22;13201;51.148;13.738;2023-12-20T06:08:16;5.80;99.90
25250;DHT22;13201;51.148;13.738;2023-12-20T06:10:41;5.80;99.90
25250;DHT22;13201;51.148;13.738;2023-12-20T06:13:07;6.00;99.90
25250;DHT22;13201;51.148;13.738;2023-12-20T06:15:33;6.10;99.90
25250;DHT22;13201;51.148;13.738;2023-12-20T06:17:59;5.90;99.90
25250;DHT22;13201;51.148;13.738;2023-12-20T06:20:24;5.90;99.90
25250;DHT22;13201;51.148;13.738;2023-12-20T06:22:50;5.90;99.90
25250;DHT22;13201;51.148;13.738;2023-12-20T06:25:16;6.00;99.90
25250;DHT22;13201;51.148;13.738;2023-12-20T06:27:42;6.00;99.90
25250;DHT22;13201;51.148;13.738;2023-12-20T06:30:08;6.00;99.90
25250;DHT22;13201;51.148;13.738;2023-12-20T06:32:36;6.20;99.90
25250;DHT22;13201;51.148;13.738;2023-12-20T06:35:04;6.10;99.90
25250;DHT22;13201;51.148;13.738;2023-12-20T06:37:30;6.10;99.90
25250;DHT22;13201;51.148;13.738;2023-12-20T06:39:55;6.10;99.90
25250;DHT22;13201;51.148;13.738;2023-12-20T06:42:22;6.10;99.90
25250;DHT22;13201;51.148;13.738;2023-12-20T06:44:48;6.20;99.90
25250;DHT22;13201;51.148;13.738;2023-12-20T06:47:13;6.10;99.90
25250;DHT22;13201;51.148;13.738;2023-12-20T06:49:40;5.90;99.90
25250;DHT22;13201;51.148;13.738;2023-12-20T06:52:06;5.90;99.90
25250;DHT22;13201;51.148;13.738;2023-12-20T06:54:31;5.90;99.90
25250;DHT22;13201;51.148;13.738;2023-12-20T06:56:59;5.90;99.90
25250;DHT22;13201;51.148;13.738;2023-12-20T06:59:25;6.00;99.90
25250;DHT22;13201;51.148;13.738;2023-12-20T07:01:51;6.00;99.90
25250;DHT22;13201;51.148;13.738;2023-12-20T07:04:17;5.90;99.90
25250;DHT22;13201;51.148;13.738;2023-12-20T07:06:47;5.90;99.90
25250;DHT22;13201;51.148;13.738;2023-12-20T07:09:13;5.90;99.90
25250;DHT22;13201;51.148;13.738;2023-12-20T07:11:39;5.90;99.90
25250;DHT22;13201;51.148;13.738;2023-12-20T07:14:05;5.80;99.90
25250;DHT22;13201;51.148;13.738;2023-12-20T07:16:31;5.90;99.90
25250;DHT22;13201;51.148;13.738;2023-12-20T07:18:57;5.90;99.90
25250;DHT22;13201;51.148;13.738;2023-12-20T07:21:23;5.90;99.90
25250;DHT22;13201;51.148;13.738;2023-12-20T07:23:48;5.90;99.90
25250;DHT22;13201;51.148;13.738;2023-12-20T07:26:15;6.00;99.90
25250;DHT22;13201;51.148;13.738;2023-12-20T07:28:41;6.00;99.90
25250;DHT22;13201;51.148;13.738;2023-12-20T07:31:06;6.00;99.90
25250;DHT22;13201;51.148;13.738;2023-12-20T07:33:32;5.90;99.90
25250;DHT22;13201;51.148;13.738;2023-12-20T07:35:59;5.90;99.90
25250;DHT22;13201;51.148;13.738;2023-12-20T07:38:26;5.90;99.90
25250;DHT22;13201;51.148;13.738;2023-12-20T07:40:51;5.90;99.90
25250;DHT22;13201;51.148;13.738;2023-12-20T07:43:17;6.00;99.90
25250;DHT22;13201;51.148;13.738;2023-12-20T07:45:43;6.00;99.90
25250;DHT22;13201;51.148;13.738;2023-12-20T07:48:08;6.00;99.90
25250;DHT22;13201;51.148;13.738;2023-12-20T07:50:34;6.00;99.90
25250;DHT22;13201;51.148;13.738;2023-12-20T07:53:00;6.10;99.90
25250;DHT22;13201;51.148;13.738;2023-12-20T07:55:27;6.10;99.90
25250;DHT22;13201;51.148;13.738;2023-12-20T07:57:52;6.00;99.90
25250;DHT22;13201;51.148;13.738;2023-12-20T08:00:18;6.00;99.90
25250;DHT22;13201;51.148;13.738;2023-12-20T08:02:44;6.00;99.90
25250;DHT22;13201;51.148;13.738;2023-12-20T08:05:10;6.00;99.90
25250;DHT22;13201;51.148;13.738;2023-12-20T08:07:36;6.10;99.90
25250;DHT22;13201;51.148;13.738;2023-12-20T08:10:02;6.20;99.90
25250;DHT22;13201;51.148;13.738;2023-12-20T08:12:28;6.20;99.90
25250;DHT22;13201;51.148;13.738;2023-12-20T08:14:54;6.20;99.90
25250;DHT22;13201;51.148;13.738;2023-12-20T08:17:20;6.30;99.90
25250;DHT22;13201;51.148;13.738;2023-12-20T08:19:45;6.40;99.90
25250;DHT22;13201;51.148;13.738;2023-12-20T08:22:11;6.30;99.90
25250;DHT22;13201;51.148;13.738;2023-12-20T08:24:37;6.30;99.90
25250;DHT22;13201;51.148;13.738;2023-12-20T08:27:04;6.40;99.90
25250;DHT22;13201;51.148;13.738;2023-12-20T08:29:30;6.40;99.90
25250;DHT22;13201;51.148;13.738;2023-12-20T08:31:56;6.50;99.90
25250;DHT22;13201;51.148;13.738;2023-12-20T08:34:22;6.40;99.90
25250;DHT22;13201;51.148;13.738;2023-12-20T08:36:49;6.40;99.90
25250;DHT22;13201;51.148;13.738;2023-12-20T08:39:15;6.50;99.90
25250;DHT22;13201;51.148;13.738;2023-12-20T08:41:41;6.50;99.90
25250;DHT22;13201;51.148;13.738;2023-12-20T08:44:06;6.40;99.90
25250;DHT22;13201;51.148;13.738;2023-12-20T08:46:32;6.50;99.90
25250;DHT22;13201;51.148;13.738;2023-12-20T08:48:58;6.50;99.90
25250;DHT22;13201;51.148;13.738;2023-12-20T08:51:23;6.70;99.90
25250;DHT22;13201;51.148;13.738;2023-12-20T08:53:51;6.50;99.90
25250;DHT22;13201;51.148;13.738;2023-12-20T08:56:17;6.60;99.90
25250;DHT22;13201;51.148;13.738;2023-12-20T08:58:44;6.40;99.90
25250;DHT22;13201;51.148;13.738;2023-12-20T09:01:10;6.50;99.90
25250;DHT22;13201;51.148;13.738;2023-12-20T09:03:36;6.40;99.90
25250;DHT22;13201;51.148;13.738;2023-12-20T09:06:01;6.50;99.90
25250;DHT22;13201;51.148;13.738;2023-12-20T09:08:27;6.40;99.90
25250;DHT22;13201;51.148;13.738;2023-12-20T09:10:53;6.50;99.90
25250;DHT22;13201;51.148;13.738;2023-12-20T09:13:18;6.50;99.90
25250;DHT22;13201;51.148;13.738;2023-12-20T09:15:44;6.50;99.90
25250;DHT22;13201;51.148;13.738;2023-12-20T09:18:10;6.50;99.90
25250;DHT22;13201;51.148;13.738;2023-12-20T09:20:35;6.60;99.90
25250;DHT22;13201;51.148;13.738;2023-12-20T09:23:01;6.60;99.90
25250;DHT22;13201;51.148;13.738;2023-12-20T09:25:27;6.50;99.90
25250;DHT22;13201;51.148;13.738;2023-12-20T09:27:53;6.50;99.90
25250;DHT22;13201;51.148;13.738;2023-12-20T09:30:19;6.60;99.90
25250;DHT22;13201;51.148;13.738;2023-12-20T09:32:45;6.70;99.90
25250;DHT22;13201;51.148;13.738;2023-12-20T09:35:11;6.80;99.90
25250;DHT22;13201;51.148;13.738;2023-12-20T09:37:36;6.80;99.90
25250;DHT22;13201;51.148;13.738;2023-12-20T09:40:03;6.80;99.90
25250;DHT22;13201;51.148;13.738;2023-12-20T09:45:26;6.80;99.90
25250;DHT22;13201;51.148;13.738;2023-12-20T09:47:53;6.80;99.90
25250;DHT22;13201;51.148;13.738;2023-12-20T09:50:20;6.80;99.90
25250;DHT22;13201;51.148;13.738;2023-12-20T09:52:50;6.80;99.90
25250;DHT22;13201;51.148;13.738;2023-12-20T09:55:17;6.80;99.90
25250;DHT22;13201;51.148;13.738;2023-12-20T09:57:44;6.80;99.90
25250;DHT22;13201;51.148;13.738;2023-12-20T10:00:11;6.80;99.90
25250;DHT22;13201;51.148;13.738;2023-12-20T10:02:39;6.80;99.90
25250;DHT22;13201;51.148;13.738;2023-12-20T10:05:08;6.80;99.90
25250;DHT22;13201;51.148;13.738;2023-12-20T10:07:38;6.80;99.90
25250;DHT22;13201;51.148;13.738;2023-12-20T10:10:04;6.90;99.90
25250;DHT22;13201;51.148;13.738;2023-12-20T10:12:30;7.00;99.90
25250;DHT22;13201;51.148;13.738;2023-12-20T10:14:57;7.10;99.90
25250;DHT22;13201;51.148;13.738;2023-12-20T10:17:23;7.10;99.90
25250;DHT22;13201;51.148;13.738;2023-12-20T10:19:49;7.00;99.90
25250;DHT22;13201;51.148;13.738;2023-12-20T10:22:15;7.00;99.90
25250;DHT22;13201;51.148;13.738;2023-12-20T10:24:41;7.10;99.90
25250;DHT22;13201;51.148;13.738;2023-12-20T10:27:08;7.10;99.90
25250;DHT22;13201;51.148;13.738;2023-12-20T10:29:37;7.10;99.90
25250;DHT22;13201;51.148;13.738;2023-12-20T10:34:48;7.40;99.90
25250;DHT22;13201;51.148;13.738;2023-12-20T10:37:13;7.30;99.90
25250;DHT22;13201;51.148;13.738;2023-12-20T10:39:39;7.40;99.90
25250;DHT22;13201;51.148;13.738;2023-12-20T10:42:06;7.40;99.90
25250;DHT22;13201;51.148;13.738;2023-12-20T10:44:32;7.20;99.90
25250;DHT22;13201;51.148;13.738;2023-12-20T10:46:58;7.30;99.90
25250;DHT22;13201;51.148;13.738;2023-12-20T10:49:25;7.50;99.90
25250;DHT22;13201;51.148;13.738;2023-12-20T10:51:54;7.40;99.90
25250;DHT22;13201;51.148;13.738;2023-12-20T10:54:20;7.50;99.90
25250;DHT22;13201;51.148;13.738;2023-12-20T10:56:46;7.40;99.90
25250;DHT22;13201;51.148;13.738;2023-12-20T10:59:16;7.50;99.90
25250;DHT22;13201;51.148;13.738;2023-12-20T11:01:44;7.50;99.90
25250;DHT22;13201;51.148;13.738;2023-12-20T11:04:15;7.40;99.90
25250;DHT22;13201;51.148;13.738;2023-12-20T11:06:54;7.30;99.90
25250;DHT22;13201;51.148;13.738;2023-12-20T11:09:26;7.40;99.90
25250;DHT22;13201;51.148;13.738;2023-12-20T11:12:14;7.40;99.90
25250;DHT22;13201;51.148;13.738;2023-12-20T11:14:49;7.30;99.90
25250;DHT22;13201;51.148;13.738;2023-12-20T11:17:15;7.30;99.90
25250;DHT22;13201;51.148;13.738;2023-12-20T11:22:27;7.50;99.90
25250;DHT22;13201;51.148;13.738;2023-12-20T11:24:59;7.30;99.90
25250;DHT22;13201;51.148;13.738;2023-12-20T11:27:25;7.30;99.90
25250;DHT22;13201;51.148;13.738;2023-12-20T11:29:56;7.30;99.90
25250;DHT22;13201;51.148;13.738;2023-12-20T11:34:54;7.30;99.90
25250;DHT22;13201;51.148;13.738;2023-12-20T11:37:20;7.20;99.90
25250;DHT22;13201;51.148;13.738;2023-12-20T11:39:55;7.20;99.90
25250;DHT22;13201;51.148;13.738;2023-12-20T11:42:21;7.10;99.90
25250;DHT22;13201;51.148;13.738;2023-12-20T11:44:47;7.10;99.90
25250;DHT22;13201;51.148;13.738;2023-12-20T11:47:13;7.10;99.90
25250;DHT22;13201;51.148;13.738;2023-12-20T11:49:41;7.20;99.90
25250;DHT22;13201;51.148;13.738;2023-12-20T11:52:06;7.30;99.90
25250;DHT22;13201;51.148;13.738;2023-12-20T11:54:32;7.40;99.90
25250;DHT22;13201;51.148;13.738;2023-12-20T11:56:58;7.60;99.90
25250;DHT22;13201;51.148;13.738;2023-12-20T11:59:23;7.60;99.90
25250;DHT22;13201;51.148;13.738;2023-12-20T12:01:50;7.60;99.90
25250;DHT22;13201;51.148;13.738;2023-12-20T12:04:16;7.70;99.90
25250;DHT22;13201;51.148;13.738;2023-12-20T12:06:44;7.70;99.90
25250;DHT22;13201;51.148;13.738;2023-12-20T12:09:10;8.00;99.90
25250;DHT22;13201;51.148;13.738;2023-12-20T12:11:36;8.00;99.90
25250;DHT22;13201;51.148;13.738;2023-12-20T12:14:02;8.00;99.90
25250;DHT22;13201;51.148;13.738;2023-12-20T12:16:27;7.90;99.90
25250;DHT22;13201;51.148;13.738;2023-12-20T12:18:57;8.00;99.90
25250;DHT22;13201;51.148;13.738;2023-12-20T12:21:23;8.10;99.90
25250;DHT22;13201;51.148;13.738;2023-12-20T12:23:49;8.10;99.90
25250;DHT22;13201;51.148;13.738;2023-12-20T12:26:15;8.40;99.90
25250;DHT22;13201;51.148;13.738;2023-12-20T12:28:41;8.30;99.90
25250;DHT22;13201;51.148;13.738;2023-12-20T12:31:08;8.00;99.90
25250;DHT22;13201;51.148;13.738;2023-12-20T12:33:34;7.80;99.90
25250;DHT22;13201;51.148;13.738;2023-12-20T12:36:03;7.70;99.90
25250;DHT22;13201;51.148;13.738;2023-12-20T12:38:30;7.70;99.90
25250;DHT22;13201;51.148;13.738;2023-12-20T12:40:56;7.70;99.90
25250;DHT22;13201;51.148;13.738;2023-12-20T12:43:23;7.70;99.90
25250;DHT22;13201;51.148;13.738;2023-12-20T12:45:48;7.80;99.90
25250;DHT22;13201;51.148;13.738;2023-12-20T12:48:14;7.80;99.90
25250;DHT22;13201;51.148;13.738;2023-12-20T12:50:40;8.00;99.90
25250;DHT22;13201;51.148;13.738;2023-12-20T12:53:06;8.00;99.90
25250;DHT22;13201;51.148;13.738;2023-12-20T12:55:32;8.10;99.90
25250;DHT22;13201;51.148;13.738;2023-12-20T12:57:58;8.10;99.90
25250;DHT22;13201;51.148;13.738;2023-12-20T13:00:23;8.20;99.90
25250;DHT22;13201;51.148;13.738;2023-12-20T13:02:50;8.10;99.90
25250;DHT22;13201;51.148;13.738;2023-12-20T13:05:16;8.10;99.90
25250;DHT22;13201;51.148;13.738;2023-12-20T13:07:43;8.10;99.90
25250;DHT22;13201;51.148;13.738;2023-12-20T13:10:11;8.00;99.90
25250;DHT22;13201;51.148;13.738;2023-12-20T13:12:36;8.00;99.90
25250;DHT22;13201;51.148;13.738;2023-12-20T13:15:02;8.00;99.90
25250;DHT22;13201;51.148;13.738;2023-12-20T13:17:29;8.00;99.90
25250;DHT22;13201;51.148;13.738;2023-12-20T13:19:55;8.00;99.90
25250;DHT22;13201;51.148;13.738;2023-12-20T13:22:21;8.00;99.90
25250;DHT22;13201;51.148;13.738;2023-12-20T13:24:46;7.90;99.90
25250;DHT22;13201;51.148;13.738;2023-12-20T13:27:12;8.00;99.90
25250;DHT22;13201;51.148;13.738;2023-12-20T13:29:38;8.10;99.90
25250;DHT22;13201;51.148;13.738;2023-12-20T13:32:04;8.00;99.90
25250;DHT22;13201;51.148;13.738;2023-12-20T13:34:29;7.90;99.90
25250;DHT22;13201;51.148;13.738;2023-12-20T13:36:55;7.80;99.90
25250;DHT22;13201;51.148;13.738;2023-12-20T13:39:22;7.90;99.90
25250;DHT22;13201;51.148;13.738;2023-12-20T13:41:47;7.90;99.90
25250;DHT22;13201;51.148;13.738;2023-12-20T13:44:13;7.80;99.90
25250;DHT22;13201;51.148;13.738;2023-12-20T13:46:40;7.70;99.90
25250;DHT22;13201;51.148;13.738;2023-12-20T13:49:06;7.70;99.90
25250;DHT22;13201;51.148;13.738;2023-12-20T13:51:32;7.70;99.90
25250;DHT22;13201;51.148;13.738;2023-12-20T13:53:57;7.70;99.90
25250;DHT22;13201;51.148;13.738;2023-12-20T13:56:23;7.60;99.90
25250;DHT22;13201;51.148;13.738;2023-12-20T13:58:49;7.50;99.90
25250;DHT22;13201;51.148;13.738;2023-12-20T14:01:16;7.50;99.90
25250;DHT22;13201;51.148;13.738;2023-12-20T14:03:42;7.50;99.90
25250;DHT22;13201;51.148;13.738;2023-12-20T14:06:07;7.50;99.90
25250;DHT22;13201;51.148;13.738;2023-12-20T14:08:33;7.50;99.90
25250;DHT22;13201;51.148;13.738;2023-12-20T14:10:59;7.50;99.90
25250;DHT22;13201;51.148;13.738;2023-12-20T14:13:26;7.50;99.90
25250;DHT22;13201;51.148;13.738;2023-12-20T14:15:52;7.40;99.90
25250;DHT22;13201;51.148;13.738;2023-12-20T14:18:19;7.50;99.90
25250;DHT22;13201;51.148;13.738;2023-12-20T14:20:45;7.40;99.90
25250;DHT22;13201;51.148;13.738;2023-12-20T14:23:12;7.40;99.90
25250;DHT22;13201;51.148;13.738;2023-12-20T14:25:41;7.40;99.90
25250;DHT22;13201;51.148;13.738;2023-12-20T14:28:07;7.40;99.90
25250;DHT22;13201;51.148;13.738;2023-12-20T14:30:33;7.40;99.90
25250;DHT22;13201;51.148;13.738;2023-12-20T14:32:59;7.40;99.90
25250;DHT22;13201;51.148;13.738;2023-12-20T14:35:24;7.40;99.90
25250;DHT22;13201;51.148;13.738;2023-12-20T14:37:50;7.40;99.90
25250;DHT22;13201;51.148;13.738;2023-12-20T14:40:16;7.40;99.90
25250;DHT22;13201;51.148;13.738;2023-12-20T14:42:45;7.40;99.90
25250;DHT22;13201;51.148;13.738;2023-12-20T14:45:11;7.30;99.90
25250;DHT22;13201;51.148;13.738;2023-12-20T14:47:38;7.30;99.90
25250;DHT22;13201;51.148;13.738;2023-12-20T14:50:05;7.30;99.90
25250;DHT22;13201;51.148;13.738;2023-12-20T14:52:34;7.30;99.90
25250;DHT22;13201;51.148;13.738;2023-12-20T14:55:01;7.30;99.90
25250;DHT22;13201;51.148;13.738;2023-12-20T14:57:28;7.40;99.90
25250;DHT22;13201;51.148;13.738;2023-12-20T14:59:55;7.30;99.90
25250;DHT22;13201;51.148;13.738;2023-12-20T15:02:21;7.30;99.90
25250;DHT22;13201;51.148;13.738;2023-12-20T15:04:47;7.30;99.90
25250;DHT22;13201;51.148;13.738;2023-12-20T15:07:13;7.20;99.90
25250;DHT22;13201;51.148;13.738;2023-12-20T15:09:38;7.30;99.90
25250;DHT22;13201;51.148;13.738;2023-12-20T15:12:04;7.20;99.90
25250;DHT22;13201;51.148;13.738;2023-12-20T15:14:30;7.30;99.90
25250;DHT22;13201;51.148;13.738;2023-12-20T15:16:56;7.30;99.90
25250;DHT22;13201;51.148;13.738;2023-12-20T15:19:22;7.30;99.90
25250;DHT22;13201;51.148;13.738;2023-12-20T15:21:48;7.30;99.90
25250;DHT22;13201;51.148;13.738;2023-12-20T15:24:14;7.30;99.90
25250;DHT22;13201;51.148;13.738;2023-12-20T15:26:45;7.30;99.90
25250;DHT22;13201;51.148;13.738;2023-12-20T15:29:12;7.30;99.90
25250;DHT22;13201;51.148;13.738;2023-12-20T15:31:44;7.30;99.90
25250;DHT22;13201;51.148;13.738;2023-12-20T15:34:10;7.30;99.90
25250;DHT22;13201;51.148;13.738;2023-12-20T15:36:37;7.30;99.90
25250;DHT22;13201;51.148;13.738;2023-12-20T15:39:03;7.30;99.90
25250;DHT22;13201;51.148;13.738;2023-12-20T15:41:29;7.30;99.90
25250;DHT22;13201;51.148;13.738;2023-12-20T15:43:55;7.30;99.90
25250;DHT22;13201;51.148;13.738;2023-12-20T15:46:24;7.20;99.90
25250;DHT22;13201;51.148;13.738;2023-12-20T15:48:49;7.20;99.90
25250;DHT22;13201;51.148;13.738;2023-12-20T15:51:19;7.20;99.90
25250;DHT22;13201;51.148;13.738;2023-12-20T15:53:45;7.20;99.90
25250;DHT22;13201;51.148;13.738;2023-12-20T15:56:11;7.20;99.90
25250;DHT22;13201;51.148;13.738;2023-12-20T15:58:37;7.20;99.90